Time;durP1;ratioP1;P1;durP2;ratioP2;P2;SDS_P1;SDS_P2;PMS_P1;PMS_P2;Temp;Humidity;BMP_temperature;BMP_pressure;BME280_temperature;BME280_humidity;BME280_pressure;Samples;Min_cycle;Max_cycle;Signal;HPM_P1;HPM_P2
2022/01/27 00:04:48;;;;;;;51.58;13.23;;;-1.40;99.90;;;;;;4951076;28;20114;-68
2022/01/27 00:07:14;;;;;;;55.95;14.45;;;-1.50;99.90;;;;;;4950327;28;20138;-68
2022/01/27 00:12:08;;;;;;;54.75;14.23;;;-1.50;99.90;;;;;;4951252;28;20505;-68
2022/01/27 00:14:34;;;;;;;52.65;14.13;;;-1.50;99.90;;;;;;4951802;28;20031;-68
2022/01/27 00:17:12;;;;;;;49.70;12.68;;;-1.50;99.90;;;;;;4951710;28;20046;-68
2022/01/27 00:19:38;;;;;;;44.42;12.55;;;-1.50;99.90;;;;;;4950822;28;20034;-67
2022/01/27 00:22:04;;;;;;;46.85;13.57;;;-1.50;99.90;;;;;;4950574;28;20114;-70
2022/01/27 00:24:31;;;;;;;52.00;13.23;;;-1.50;99.90;;;;;;4949916;28;20405;-68
2022/01/27 00:26:58;;;;;;;46.53;13.30;;;-1.60;99.90;;;;;;4950441;28;20114;-68
2022/01/27 00:29:24;;;;;;;53.10;13.65;;;-1.60;99.90;;;;;;4950320;28;20027;-69
2022/01/27 00:31:50;;;;;;;55.40;14.13;;;-1.60;99.90;;;;;;4950537;28;20035;-69
2022/01/27 00:34:16;;;;;;;53.47;13.73;;;-1.50;99.90;;;;;;4950246;28;20480;-69
2022/01/27 00:36:42;;;;;;;54.47;14.48;;;-1.50;99.90;;;;;;4949854;28;20742;-67
2022/01/27 00:39:07;;;;;;;58.10;15.32;;;-1.50;99.90;;;;;;4950509;28;20110;-67
2022/01/27 00:41:33;;;;;;;53.50;15.43;;;-1.40;99.90;;;;;;4948001;28;20035;-67
2022/01/27 00:43:59;;;;;;;62.83;15.43;;;-1.40;99.90;;;;;;4950483;28;20046;-69
2022/01/27 00:46:25;;;;;;;70.00;15.38;;;-1.40;99.90;;;;;;4944992;28;20033;-69
2022/01/27 00:48:51;;;;;;;59.00;15.32;;;-1.40;99.90;;;;;;4946191;28;20027;-68
2022/01/27 00:51:23;;;;;;;67.28;15.85;;;-1.40;99.90;;;;;;4949784;28;20031;-68
2022/01/27 00:54:09;;;;;;;54.90;14.07;;;-1.30;99.90;;;;;;4952552;28;20110;-70
2022/01/27 00:56:49;;;;;;;53.03;14.02;;;-1.30;99.90;;;;;;4944569;29;20034;-69
2022/01/27 01:02:07;;;;;;;;;;;-1.40;99.90;;;;;;4948350;29;20040;-67
2022/01/27 01:04:37;;;;;;;56.08;14.70;;;-1.30;99.90;;;;;;4948409;28;19926;-68
2022/01/27 01:07:03;;;;;;;59.83;14.25;;;-1.30;99.90;;;;;;4949817;28;20492;-67
2022/01/27 01:14:37;;;;;;;49.17;14.15;;;-1.40;99.90;;;;;;4947624;28;20041;-68
2022/01/27 01:29:26;;;;;;;58.35;13.82;;;-1.30;99.90;;;;;;4950391;28;20047;-66
2022/01/27 01:30:48;;;;;;;58.30;14.75;;;-1.40;99.90;;;;;;4948758;28;20089;-68
2022/01/27 01:33:20;;;;;;;56.75;13.98;;;-1.40;99.90;;;;;;4949157;28;20027;-66
2022/01/27 01:35:59;;;;;;;61.30;13.80;;;-1.40;99.90;;;;;;4948268;29;20073;-68
2022/01/27 01:38:26;;;;;;;59.30;14.30;;;-1.40;99.90;;;;;;4948411;28;20039;-66
2022/01/27 01:40:53;;;;;;;59.40;14.77;;;-1.30;99.90;;;;;;4949621;28;20026;-66
2022/01/27 01:43:20;;;;;;;52.92;15.02;;;-1.30;99.90;;;;;;4949224;28;20098;-68
2022/01/27 01:45:47;;;;;;;61.35;15.15;;;-1.40;99.90;;;;;;4949846;28;20421;-69
2022/01/27 01:48:15;;;;;;;63.97;15.57;;;-1.30;99.90;;;;;;4949893;28;20031;-68
2022/01/27 01:50:41;;;;;;;59.72;15.10;;;-1.30;99.90;;;;;;4945351;28;20077;-69
2022/01/27 01:53:07;;;;;;;60.90;15.63;;;-1.40;99.90;;;;;;4948015;28;20460;-67
2022/01/27 01:55:33;;;;;;;58.17;14.93;;;-1.30;99.90;;;;;;4948732;28;20114;-67
2022/01/27 01:57:59;;;;;;;53.55;14.45;;;-1.40;99.90;;;;;;4949543;28;20130;-68
2022/01/27 02:00:26;;;;;;;65.72;16.83;;;-1.50;99.90;;;;;;4947286;28;20479;-69
2022/01/27 02:02:53;;;;;;;58.90;14.70;;;-1.50;99.90;;;;;;4950094;28;20119;-66
2022/01/27 02:05:23;;;;;;;62.45;14.57;;;-1.60;99.90;;;;;;4952049;28;20211;-67
2022/01/27 02:19:26;;;;;;;61.83;13.80;;;-1.60;99.90;;;;;;4950644;28;20074;-72
2022/01/27 02:21:57;;;;;;;54.83;12.80;;;-1.60;99.90;;;;;;4945548;28;20804;-66
2022/01/27 02:24:25;;;;;;;55.03;13.80;;;-1.60;99.90;;;;;;4953338;28;20508;-70
2022/01/27 02:26:51;;;;;;;66.15;15.35;;;-1.60;99.90;;;;;;4952431;28;20032;-67
2022/01/27 02:29:18;;;;;;;56.35;14.95;;;-1.60;99.90;;;;;;4951444;28;20050;-66
2022/01/27 02:31:45;;;;;;;61.13;15.27;;;-1.60;99.90;;;;;;4950874;28;20023;-66
2022/01/27 02:34:11;;;;;;;60.50;14.13;;;-1.60;99.90;;;;;;4953668;28;20098;-68
2022/01/27 02:36:37;;;;;;;69.22;15.20;;;-1.50;99.90;;;;;;4950371;28;20126;-66
2022/01/27 02:39:05;;;;;;;65.53;16.30;;;-1.60;99.90;;;;;;4957536;28;20421;-67
2022/01/27 02:41:36;;;;;;;59.97;14.85;;;-1.60;99.90;;;;;;4951883;28;20033;-67
2022/01/27 02:44:03;;;;;;;78.85;17.15;;;-1.60;99.90;;;;;;4954790;28;20038;-67
2022/01/27 02:46:41;;;;;;;67.70;15.68;;;-1.60;99.90;;;;;;4951952;28;20019;-71
2022/01/27 02:49:07;;;;;;;68.07;17.05;;;-1.50;99.90;;;;;;4948933;28;20031;-66
2022/01/27 02:51:35;;;;;;;72.28;17.50;;;-1.60;99.90;;;;;;4951572;28;20036;-68
2022/01/27 02:54:01;;;;;;;62.80;16.55;;;-1.50;99.90;;;;;;4945807;28;20040;-67
2022/01/27 02:56:27;;;;;;;72.75;17.50;;;-1.50;99.90;;;;;;4951987;28;20519;-71
2022/01/27 02:58:53;;;;;;;73.22;16.20;;;-1.50;99.90;;;;;;4951841;28;20047;-66
2022/01/27 03:01:21;;;;;;;74.75;17.27;;;-1.50;99.90;;;;;;4952127;28;20528;-66
2022/01/27 03:03:46;;;;;;;62.58;16.15;;;-1.50;99.90;;;;;;4951276;28;20023;-66
2022/01/27 03:06:12;;;;;;;58.42;15.35;;;-1.40;99.90;;;;;;4951238;28;20038;-68
2022/01/27 03:08:39;;;;;;;61.13;15.85;;;-1.40;99.90;;;;;;4950026;28;20563;-70
2022/01/27 03:11:11;;;;;;;70.57;18.10;;;-1.40;99.90;;;;;;4950819;28;20459;-68
2022/01/27 03:13:37;;;;;;;74.63;18.20;;;-1.40;99.90;;;;;;4951386;28;20523;-66
2022/01/27 03:16:06;;;;;;;59.72;17.08;;;-1.40;99.90;;;;;;4952947;28;20115;-66
2022/01/27 03:18:32;;;;;;;67.82;15.65;;;-1.50;99.90;;;;;;4950943;28;20042;-66
2022/01/27 03:20:57;;;;;;;68.55;16.50;;;-1.40;99.90;;;;;;4950565;28;20032;-69
2022/01/27 03:23:23;;;;;;;70.68;17.77;;;-1.50;99.90;;;;;;4951871;28;21608;-66
2022/01/27 03:25:49;;;;;;;68.50;16.95;;;-1.50;99.90;;;;;;4950718;28;20028;-68
2022/01/27 03:28:15;;;;;;;78.22;17.88;;;-1.50;99.90;;;;;;4951550;28;20039;-67
2022/01/27 03:30:41;;;;;;;74.70;18.60;;;-1.40;99.90;;;;;;4951269;28;20118;-68
2022/01/27 03:33:07;;;;;;;68.72;18.45;;;-1.40;99.90;;;;;;4950527;28;20146;-67
2022/01/27 03:35:32;;;;;;;79.05;19.48;;;-1.40;99.90;;;;;;4950600;28;20039;-69
2022/01/27 03:37:58;;;;;;;67.35;16.33;;;-1.50;99.90;;;;;;4951601;28;20052;-67
2022/01/27 03:40:24;;;;;;;76.45;17.52;;;-1.50;99.90;;;;;;4952627;28;20034;-68
2022/01/27 03:43:02;;;;;;;74.03;17.55;;;-1.50;99.90;;;;;;4950845;28;20037;-67
2022/01/27 03:45:28;;;;;;;75.13;16.83;;;-1.40;99.90;;;;;;4950232;28;20440;-71
2022/01/27 03:47:54;;;;;;;82.95;17.45;;;-1.40;99.90;;;;;;4950828;28;20042;-68
2022/01/27 03:50:20;;;;;;;75.70;17.85;;;-1.50;99.90;;;;;;4950100;28;20460;-68
2022/01/27 03:52:45;;;;;;;70.13;16.30;;;-1.40;99.90;;;;;;4949356;28;20436;-66
2022/01/27 03:55:11;;;;;;;71.78;17.25;;;-1.50;99.90;;;;;;4950990;28;20027;-66
2022/01/27 03:57:37;;;;;;;73.10;17.00;;;-1.50;99.90;;;;;;4950131;28;20039;-67
2022/01/27 04:00:06;;;;;;;62.13;13.75;;;-1.60;99.90;;;;;;4951500;28;20039;-69
2022/01/27 04:02:34;;;;;;;69.65;16.70;;;-1.60;99.90;;;;;;4949553;28;20027;-70
2022/01/27 04:05:00;;;;;;;70.30;17.08;;;-1.60;99.90;;;;;;4949826;28;20039;-67
2022/01/27 04:07:26;;;;;;;85.32;18.70;;;-1.60;99.90;;;;;;4949845;28;20035;-68
2022/01/27 04:09:51;;;;;;;78.22;17.80;;;-1.60;99.90;;;;;;4950480;28;20054;-67
2022/01/27 04:12:17;;;;;;;74.32;18.15;;;-1.60;99.90;;;;;;4950815;28;20067;-67
2022/01/27 04:14:43;;;;;;;71.00;17.33;;;-1.60;99.90;;;;;;4950268;28;20050;-68
2022/01/27 04:17:09;;;;;;;63.35;16.15;;;-1.60;99.90;;;;;;4947831;29;20043;-68
2022/01/27 04:19:35;;;;;;;76.10;17.42;;;-1.60;99.90;;;;;;4948894;28;20384;-68
2022/01/27 04:22:01;;;;;;;88.05;18.67;;;-1.60;99.90;;;;;;4950707;28;20023;-68
2022/01/27 04:24:26;;;;;;;72.85;17.00;;;-1.50;99.90;;;;;;4950783;28;20031;-66
2022/01/27 04:27:00;;;;;;;62.58;16.50;;;-1.50;99.90;;;;;;4948146;28;20035;-68
2022/01/27 04:29:27;;;;;;;74.43;18.90;;;-1.50;99.90;;;;;;4949337;28;20476;-69
2022/01/27 04:31:53;;;;;;;69.03;17.52;;;-1.50;99.90;;;;;;4949001;28;20023;-67
2022/01/27 04:34:19;;;;;;;58.72;17.67;;;-1.40;99.90;;;;;;4949768;28;20673;-69
2022/01/27 04:36:45;;;;;;;66.45;15.55;;;-1.50;99.90;;;;;;4949764;28;20031;-70
2022/01/27 04:39:33;;;;;;;74.60;17.08;;;-1.50;99.90;;;;;;4948871;28;20396;-68
2022/01/27 04:42:06;;;;;;;79.90;17.65;;;-1.60;99.90;;;;;;4949529;29;20063;-68
2022/01/27 04:44:42;;;;;;;88.93;18.13;;;-1.60;99.90;;;;;;4943997;28;20066;-71
2022/01/27 04:47:14;;;;;;;81.80;19.05;;;-1.60;99.90;;;;;;4949598;28;20038;-68
2022/01/27 04:49:40;;;;;;;83.35;17.80;;;-1.60;99.90;;;;;;4947493;28;20074;-68
2022/01/27 04:52:07;;;;;;;73.65;19.13;;;-1.60;99.90;;;;;;4950630;28;20035;-69
2022/01/27 04:55:02;;;;;;;81.95;18.98;;;-1.60;99.90;;;;;;4946353;28;20409;-70
2022/01/27 04:57:19;;;;;;;89.70;17.40;;;-1.60;99.90;;;;;;4948907;28;20769;-67
2022/01/27 04:59:45;;;;;;;76.45;17.80;;;-1.50;99.90;;;;;;4947075;28;20118;-69
2022/01/27 05:02:26;;;;;;;75.28;17.45;;;-1.50;99.90;;;;;;4945117;28;20027;-67
2022/01/27 05:04:52;;;;;;;67.45;17.02;;;-1.60;99.90;;;;;;4948768;29;20035;-66
2022/01/27 05:07:18;;;;;;;72.22;16.98;;;-1.60;99.90;;;;;;4955705;28;20062;-67
2022/01/27 05:09:52;;;;;;;84.18;18.45;;;-1.60;99.90;;;;;;4947483;29;20392;-67
2022/01/27 05:12:31;;;;;;;67.75;16.42;;;-1.60;99.90;;;;;;4948271;28;20123;-66
2022/01/27 05:14:59;;;;;;;75.80;18.50;;;-1.60;99.90;;;;;;4952623;28;20323;-66
2022/01/27 05:17:24;;;;;;;89.53;18.35;;;-1.60;99.90;;;;;;4950042;28;20126;-69
2022/01/27 05:19:51;;;;;;;76.22;17.98;;;-1.60;99.90;;;;;;4948282;28;20091;-66
2022/01/27 05:22:17;;;;;;;72.22;18.10;;;-1.60;99.90;;;;;;4955738;28;20117;-66
2022/01/27 05:24:43;;;;;;;78.70;18.63;;;-1.60;99.90;;;;;;4948809;28;20094;-67
2022/01/27 05:27:09;;;;;;;72.90;18.90;;;-1.60;99.90;;;;;;4951184;28;20038;-65
2022/01/27 05:29:35;;;;;;;72.85;18.00;;;-1.50;99.90;;;;;;4952101;28;20042;-70
2022/01/27 05:32:00;;;;;;;83.47;18.20;;;-1.50;99.90;;;;;;4955305;28;20023;-65
2022/01/27 05:34:26;;;;;;;76.93;18.55;;;-1.50;99.90;;;;;;4949294;28;20027;-67
2022/01/27 05:36:51;;;;;;;68.95;17.40;;;-1.50;99.90;;;;;;4953522;28;20051;-71
2022/01/27 05:39:17;;;;;;;81.88;19.17;;;-1.50;99.90;;;;;;4948712;28;20059;-72
2022/01/27 05:41:43;;;;;;;79.93;19.92;;;-1.60;99.90;;;;;;4944893;28;20423;-70
2022/01/27 05:44:09;;;;;;;81.13;19.85;;;-1.60;99.90;;;;;;4948729;28;20503;-68
2022/01/27 05:46:35;;;;;;;87.68;19.25;;;-1.60;99.90;;;;;;4959917;28;20031;-73
2022/01/27 05:49:01;;;;;;;77.85;18.55;;;-1.50;99.90;;;;;;4957813;28;20134;-69
2022/01/27 05:51:27;;;;;;;87.05;20.92;;;-1.50;99.90;;;;;;4962846;28;20530;-69
2022/01/27 05:53:53;;;;;;;81.53;18.63;;;-1.50;99.90;;;;;;4955283;28;20035;-69
2022/01/27 05:56:19;;;;;;;81.15;18.15;;;-1.50;99.90;;;;;;4955805;28;20035;-65
2022/01/27 05:58:44;;;;;;;76.50;19.05;;;-1.50;99.90;;;;;;4958689;28;20043;-69
2022/01/27 06:01:11;;;;;;;82.07;19.67;;;-1.50;99.90;;;;;;4954495;28;20031;-66
2022/01/27 06:03:36;;;;;;;77.50;19.08;;;-1.50;99.90;;;;;;4956054;28;20082;-70
2022/01/27 06:06:02;;;;;;;67.75;19.08;;;-1.50;99.90;;;;;;4956088;28;20035;-67
2022/01/27 06:08:30;;;;;;;79.15;19.17;;;-1.50;99.90;;;;;;4954845;28;20059;-65
2022/01/27 06:10:56;;;;;;;91.68;20.30;;;-1.50;99.90;;;;;;4960018;28;20370;-67
2022/01/27 06:13:22;;;;;;;86.18;21.02;;;-1.50;99.90;;;;;;4954527;28;20192;-65
2022/01/27 06:15:47;;;;;;;80.45;19.52;;;-1.50;99.90;;;;;;4955306;28;20110;-66
2022/01/27 06:18:13;;;;;;;79.95;19.23;;;-1.60;99.90;;;;;;4955570;28;20043;-65
2022/01/27 06:20:40;;;;;;;88.32;20.33;;;-1.50;99.90;;;;;;4955043;28;20055;-72
2022/01/27 06:23:06;;;;;;;87.05;21.13;;;-1.50;99.90;;;;;;4955995;28;20034;-66
2022/01/27 06:25:31;;;;;;;82.50;20.02;;;-1.50;99.90;;;;;;4953898;28;20031;-68
2022/01/27 06:27:57;;;;;;;82.90;20.27;;;-1.50;99.90;;;;;;4956447;28;20652;-68
2022/01/27 06:30:23;;;;;;;90.68;21.17;;;-1.50;99.90;;;;;;4956245;28;20031;-68
2022/01/27 06:32:49;;;;;;;79.90;20.85;;;-1.50;99.90;;;;;;4954381;28;20031;-66
2022/01/27 06:35:15;;;;;;;80.93;19.27;;;-1.50;99.90;;;;;;4955024;28;20034;-68
2022/01/27 06:37:42;;;;;;;81.53;20.88;;;-1.40;99.90;;;;;;4958236;28;20039;-71
2022/01/27 06:40:12;;;;;;;76.63;20.17;;;-1.40;99.90;;;;;;4960026;28;20050;-67
2022/01/27 06:42:38;;;;;;;79.82;20.05;;;-1.40;99.90;;;;;;4957037;28;20142;-72
2022/01/27 06:45:05;;;;;;;85.63;18.55;;;-1.40;99.90;;;;;;4957864;28;20832;-67
2022/01/27 06:47:31;;;;;;;83.90;20.30;;;-1.40;99.90;;;;;;4955245;28;20114;-67
2022/01/27 06:49:56;;;;;;;98.45;20.13;;;-1.40;99.90;;;;;;4954957;28;20110;-71
2022/01/27 06:52:25;;;;;;;75.05;19.75;;;-1.40;99.90;;;;;;4960000;28;20027;-66
2022/01/27 06:54:52;;;;;;;79.43;19.83;;;-1.40;99.90;;;;;;4956422;28;20035;-69
2022/01/27 06:57:17;;;;;;;78.90;17.70;;;-1.50;99.90;;;;;;4954741;28;20090;-66
2022/01/27 06:59:43;;;;;;;64.45;17.30;;;-1.50;99.90;;;;;;4950496;28;20491;-71
2022/01/27 07:02:09;;;;;;;71.68;17.00;;;-1.50;99.90;;;;;;4952569;28;20035;-66
2022/01/27 07:04:35;;;;;;;76.28;18.15;;;-1.60;99.90;;;;;;4959774;28;20058;-67
2022/01/27 07:07:01;;;;;;;78.10;18.35;;;-1.60;99.90;;;;;;4953505;28;20215;-64
2022/01/27 07:09:27;;;;;;;58.70;15.13;;;-1.60;99.90;;;;;;4952421;28;20281;-64
2022/01/27 07:11:53;;;;;;;83.78;17.75;;;-1.70;99.90;;;;;;4950053;28;20036;-65
2022/01/27 07:14:19;;;;;;;83.38;18.33;;;-1.70;99.90;;;;;;4952464;28;20035;-64
2022/01/27 07:16:45;;;;;;;81.38;18.25;;;-1.60;99.90;;;;;;4951554;28;20023;-66
2022/01/27 07:19:11;;;;;;;80.50;18.17;;;-1.60;99.90;;;;;;4951668;28;20086;-66
2022/01/27 07:21:36;;;;;;;79.90;17.63;;;-1.60;99.90;;;;;;4951821;28;20031;-66
2022/01/27 07:24:02;;;;;;;87.82;18.58;;;-1.60;99.90;;;;;;4946366;28;20034;-65
2022/01/27 07:26:28;;;;;;;82.25;17.83;;;-1.50;99.90;;;;;;4950850;28;20031;-65
2022/01/27 07:28:55;;;;;;;75.80;18.08;;;-1.50;99.90;;;;;;4951688;28;20122;-67
2022/01/27 07:31:21;;;;;;;69.10;17.33;;;-1.50;99.90;;;;;;4951777;28;20476;-65
2022/01/27 07:33:48;;;;;;;83.53;19.40;;;-1.60;99.90;;;;;;4951494;28;20082;-64
2022/01/27 07:36:17;;;;;;;75.38;18.75;;;-1.60;99.90;;;;;;4951764;28;20090;-67
2022/01/27 07:38:43;;;;;;;72.60;17.98;;;-1.50;99.90;;;;;;4932053;28;20049;-67
2022/01/27 07:41:12;;;;;;;69.30;17.98;;;-1.60;99.90;;;;;;4951387;28;20132;-64
2022/01/27 07:43:40;;;;;;;69.15;19.27;;;-1.50;99.90;;;;;;4948820;28;20043;-64
2022/01/27 07:46:06;;;;;;;76.50;18.83;;;-1.50;99.90;;;;;;4951091;28;20042;-64
2022/01/27 07:48:32;;;;;;;62.85;16.02;;;-1.40;99.90;;;;;;4951611;28;20031;-64
2022/01/27 07:50:58;;;;;;;59.65;15.88;;;-1.40;99.90;;;;;;4951516;28;20046;-67
2022/01/27 07:53:24;;;;;;;61.67;15.60;;;-1.50;99.90;;;;;;4958326;28;20028;-65
2022/01/27 07:55:49;;;;;;;68.55;16.73;;;-1.50;99.90;;;;;;4950736;28;20042;-65
2022/01/27 07:58:15;;;;;;;61.85;17.80;;;-1.50;99.90;;;;;;4950438;29;20130;-68
2022/01/27 08:00:41;;;;;;;64.22;17.10;;;-1.50;99.90;;;;;;4951311;28;20034;-66
2022/01/27 08:03:06;;;;;;;60.78;16.38;;;-1.50;99.90;;;;;;4947931;28;20031;-66
2022/01/27 08:05:32;;;;;;;63.05;16.63;;;-1.50;99.90;;;;;;4951548;28;20023;-67
2022/01/27 08:07:58;;;;;;;65.95;16.83;;;-1.40;99.90;;;;;;4948237;28;20523;-67
2022/01/27 08:10:24;;;;;;;67.65;16.00;;;-1.50;99.90;;;;;;4951381;28;20036;-65
2022/01/27 08:12:50;;;;;;;70.55;16.02;;;-1.50;99.90;;;;;;4951191;28;20019;-66
2022/01/27 08:15:19;;;;;;;72.85;16.92;;;-1.50;99.90;;;;;;4950389;28;20067;-63
2022/01/27 08:17:46;;;;;;;72.30;18.17;;;-1.50;99.90;;;;;;4949957;28;20036;-68
2022/01/27 08:20:12;;;;;;;78.18;18.05;;;-1.60;99.90;;;;;;4950668;28;20035;-67
2022/01/27 08:22:39;;;;;;;68.50;17.88;;;-1.50;99.90;;;;;;4951500;29;20046;-65
2022/01/27 08:25:05;;;;;;;71.30;16.58;;;-1.50;99.90;;;;;;4950297;28;20623;-66
2022/01/27 08:27:32;;;;;;;75.45;19.13;;;-1.60;99.90;;;;;;4951310;28;20468;-66
2022/01/27 08:30:03;;;;;;;78.15;17.63;;;-1.60;99.90;;;;;;4948361;28;20038;-66
2022/01/27 08:32:44;;;;;;;82.38;18.13;;;-1.60;99.90;;;;;;4951336;29;20094;-67
2022/01/27 08:35:10;;;;;;;80.80;17.20;;;-1.60;99.90;;;;;;4948784;28;20166;-66
2022/01/27 08:37:36;;;;;;;71.15;18.10;;;-1.60;99.90;;;;;;4950905;28;20093;-65
2022/01/27 08:40:02;;;;;;;73.28;17.63;;;-1.50;99.90;;;;;;4948725;29;20031;-66
2022/01/27 08:42:28;;;;;;;69.95;17.58;;;-1.50;99.90;;;;;;4949782;29;20115;-66
2022/01/27 08:44:54;;;;;;;70.20;16.98;;;-1.50;99.90;;;;;;4950065;28;20027;-65
2022/01/27 08:47:19;;;;;;;68.40;16.88;;;-1.60;99.90;;;;;;4950288;28;20035;-65
2022/01/27 08:49:47;;;;;;;71.38;16.23;;;-1.50;99.90;;;;;;4950054;28;20059;-69
2022/01/27 08:52:12;;;;;;;75.88;17.90;;;-1.60;99.90;;;;;;4948222;29;20054;-64
2022/01/27 08:54:38;;;;;;;64.32;15.75;;;-1.60;99.90;;;;;;4949246;28;20035;-64
2022/01/27 08:57:04;;;;;;;67.35;16.67;;;-1.60;99.90;;;;;;4948068;28;20070;-67
2022/01/27 08:59:30;;;;;;;72.95;17.50;;;-1.70;99.90;;;;;;4950187;28;20027;-64
2022/01/27 09:01:55;;;;;;;74.65;17.67;;;-1.60;99.90;;;;;;4950046;29;20038;-66
2022/01/27 09:04:22;;;;;;;68.65;15.82;;;-1.60;99.90;;;;;;4949908;28;20027;-65
2022/01/27 09:06:48;;;;;;;62.83;16.70;;;-1.60;99.90;;;;;;4950360;28;20075;-68
2022/01/27 09:09:14;;;;;;;72.97;17.92;;;-1.70;99.90;;;;;;4949726;28;20071;-66
2022/01/27 09:11:43;;;;;;;72.05;18.48;;;-1.60;99.90;;;;;;4957555;28;20384;-66
2022/01/27 09:14:09;;;;;;;73.80;16.52;;;-1.60;99.90;;;;;;4949044;28;20191;-65
2022/01/27 09:16:35;;;;;;;70.57;18.33;;;-1.70;99.90;;;;;;4951253;28;20034;-64
2022/01/27 09:19:02;;;;;;;56.63;14.90;;;-1.70;99.90;;;;;;4948156;28;20039;-65
2022/01/27 09:21:39;;;;;;;62.75;17.23;;;-1.70;99.90;;;;;;4956867;28;20082;-66
2022/01/27 09:24:05;;;;;;;63.25;15.95;;;-1.70;99.90;;;;;;4949669;28;20086;-65
2022/01/27 09:29:29;;;;;;;62.97;15.88;;;-1.60;99.90;;;;;;4950148;28;20050;-66
2022/01/27 09:31:55;;;;;;;64.85;15.43;;;-1.60;99.90;;;;;;4950225;28;20035;-65
2022/01/27 09:34:21;;;;;;;60.65;15.35;;;-1.60;99.90;;;;;;4949707;28;20032;-65
2022/01/27 09:36:49;;;;;;;65.97;15.80;;;-1.60;99.90;;;;;;4950212;28;20134;-72
2022/01/27 09:39:15;;;;;;;69.60;16.45;;;-1.60;99.90;;;;;;4949070;29;20043;-66
2022/01/27 09:41:42;;;;;;;57.38;15.57;;;-1.50;99.90;;;;;;4950283;29;20054;-65
2022/01/27 09:44:11;;;;;;;71.68;16.67;;;-1.60;99.90;;;;;;4948460;29;20195;-65
2022/01/27 09:46:40;;;;;;;77.18;17.60;;;-1.60;99.90;;;;;;4948461;29;20053;-65
2022/01/27 09:49:12;;;;;;;63.88;16.70;;;-1.70;99.90;;;;;;4948862;28;20476;-67
2022/01/27 09:51:43;;;;;;;73.97;18.05;;;-1.70;99.90;;;;;;4949803;28;20038;-66
2022/01/27 09:54:09;;;;;;;68.88;15.13;;;-1.70;99.90;;;;;;4948037;28;20623;-64
2022/01/27 09:56:35;;;;;;;63.00;14.02;;;-1.70;99.90;;;;;;4949839;28;20670;-64
2022/01/27 09:59:03;;;;;;;69.28;17.25;;;-1.70;99.90;;;;;;4949038;28;20130;-66
2022/01/27 10:01:29;;;;;;;65.00;16.98;;;-1.60;99.90;;;;;;4946297;28;20034;-65
2022/01/27 10:03:58;;;;;;;79.65;18.35;;;-1.70;99.90;;;;;;4949428;28;20034;-64
2022/01/27 10:06:30;;;;;;;74.57;17.25;;;-1.70;99.90;;;;;;4956742;28;20047;-64
2022/01/27 10:09:14;;;;;;;70.68;18.52;;;-1.70;99.90;;;;;;4941541;28;20480;-65
2022/01/27 10:11:42;;;;;;;73.60;17.65;;;-1.60;99.90;;;;;;4949576;28;20648;-64
2022/01/27 10:14:26;;;;;;;76.90;18.30;;;-1.70;99.90;;;;;;4949389;28;20066;-65
2022/01/27 10:16:54;;;;;;;82.60;19.17;;;-1.70;99.90;;;;;;4949319;28;20027;-68
2022/01/27 10:19:21;;;;;;;76.20;17.98;;;-1.70;99.90;;;;;;4949957;28;20046;-64
2022/01/27 10:21:47;;;;;;;84.22;18.75;;;-1.60;99.90;;;;;;4952212;28;20034;-64
2022/01/27 10:24:20;;;;;;;86.63;18.27;;;-1.60;99.90;;;;;;4948446;28;20094;-65
2022/01/27 10:26:54;;;;;;;52.80;13.05;;;-1.50;99.90;;;;;;4949088;28;20041;-64
2022/01/27 10:29:37;;;;;;;59.55;12.02;;;-1.50;99.90;;;;;;4949669;28;20066;-65
2022/01/27 10:32:07;;;;;;;60.33;13.85;;;-1.50;99.90;;;;;;4949572;28;20050;-63
2022/01/27 10:35:00;;;;;;;42.45;12.73;;;-1.50;99.90;;;;;;4952229;28;20039;-65
2022/01/27 10:37:26;;;;;;;59.67;12.30;;;-1.50;99.90;;;;;;4950669;28;20043;-64
2022/01/27 10:39:52;;;;;;;57.00;12.95;;;-1.50;99.90;;;;;;4951128;28;20388;-69
2022/01/27 10:42:21;;;;;;;59.25;13.63;;;-1.50;99.90;;;;;;4952948;28;20123;-68
2022/01/27 10:44:55;;;;;;;66.68;13.93;;;-1.40;99.90;;;;;;4952945;28;20100;-66
2022/01/27 10:47:28;;;;;;;55.22;13.07;;;-1.40;99.90;;;;;;4953088;28;20035;-67
2022/01/27 10:50:01;;;;;;;58.78;13.90;;;-1.40;99.90;;;;;;4951537;28;20153;-69
2022/01/27 10:55:08;;;;;;;56.25;14.63;;;-1.30;99.90;;;;;;4952117;28;20749;-67
2022/01/27 10:57:34;;;;;;;65.70;14.25;;;-1.30;99.90;;;;;;4951507;29;20134;-67
2022/01/27 11:00:20;;;;;;;55.17;14.40;;;-1.30;99.90;;;;;;4949821;28;20102;-66
2022/01/27 11:02:56;;;;;;;60.28;14.73;;;-1.30;99.90;;;;;;4952513;28;20042;-65
2022/01/27 11:05:34;;;;;;;63.50;14.43;;;-1.30;99.90;;;;;;4945199;28;20456;-66
2022/01/27 11:08:03;;;;;;;57.05;14.40;;;-1.20;99.90;;;;;;4951482;28;20057;-65
2022/01/27 11:10:28;;;;;;;60.72;15.88;;;-1.20;99.90;;;;;;4951705;28;20061;-66
2022/01/27 11:12:56;;;;;;;58.83;15.60;;;-1.10;99.90;;;;;;4952107;28;20508;-68
2022/01/27 11:15:22;;;;;;;64.05;15.50;;;-1.10;99.90;;;;;;4951864;28;20034;-66
2022/01/27 11:17:50;;;;;;;60.47;15.40;;;-1.10;99.90;;;;;;4953157;28;20421;-66
2022/01/27 11:20:48;;;;;;;60.10;16.95;;;-1.10;99.90;;;;;;4949778;28;20687;-65
2022/01/27 11:28:02;;;;;;;79.07;18.85;;;-1.00;99.90;;;;;;4951483;28;20130;-67
2022/01/27 11:30:44;;;;;;;62.95;14.82;;;-1.00;99.90;;;;;;4950762;29;20031;-66
2022/01/27 11:33:15;;;;;;;67.13;17.98;;;-0.90;99.90;;;;;;4952326;28;20035;-66
2022/01/27 11:35:42;;;;;;;66.80;17.50;;;-0.90;99.90;;;;;;4956089;28;20074;-66
2022/01/27 11:38:09;;;;;;;65.22;17.10;;;-0.90;99.90;;;;;;4949537;28;20073;-66
2022/01/27 11:40:39;;;;;;;67.22;17.67;;;-0.90;99.90;;;;;;4950025;28;20027;-65
2022/01/27 11:43:17;;;;;;;64.70;17.58;;;-0.80;99.90;;;;;;4950573;28;20106;-66
2022/01/27 11:45:44;;;;;;;76.10;19.65;;;-0.90;99.90;;;;;;4951778;28;20043;-70
2022/01/27 11:48:15;;;;;;;70.47;17.48;;;-0.80;99.90;;;;;;4949097;28;20039;-63
2022/01/27 11:51:10;;;;;;;73.55;18.30;;;-0.80;99.90;;;;;;4948884;28;20041;-64
2022/01/27 11:53:49;;;;;;;68.10;18.55;;;-0.80;99.90;;;;;;4946275;28;20045;-63
2022/01/27 11:56:24;;;;;;;67.13;18.08;;;-0.80;99.90;;;;;;4950918;28;20626;-65
2022/01/27 11:58:55;;;;;;;71.07;20.20;;;-0.70;99.90;;;;;;4951408;28;20040;-65
2022/01/27 12:01:29;;;;;;;76.28;19.80;;;-0.80;99.90;;;;;;4947069;28;20028;-63
2022/01/27 12:04:07;;;;;;;70.97;19.17;;;-0.70;99.90;;;;;;4951385;28;20026;-67
2022/01/27 12:06:33;;;;;;;74.15;19.25;;;-0.60;99.90;;;;;;4951877;28;20439;-63
2022/01/27 12:09:20;;;;;;;67.32;19.83;;;-0.70;99.90;;;;;;4950028;28;20473;-71
2022/01/27 12:11:58;;;;;;;67.90;20.13;;;-0.60;99.90;;;;;;4944776;28;20031;-64
2022/01/27 12:14:28;;;;;;;76.45;19.60;;;-0.50;99.90;;;;;;4951456;28;20047;-65
2022/01/27 12:17:09;;;;;;;74.95;18.00;;;-0.50;99.90;;;;;;4958056;28;20046;-64
2022/01/27 12:19:53;;;;;;;72.00;19.73;;;-0.40;99.90;;;;;;4951258;28;20043;-66
2022/01/27 12:22:23;;;;;;;65.18;17.33;;;-0.50;99.90;;;;;;4950177;28;20107;-63
2022/01/27 12:24:55;;;;;;;47.28;12.80;;;-0.40;99.90;;;;;;4951450;28;20050;-63
2022/01/27 12:27:23;;;;;;;59.85;17.67;;;-0.40;99.90;;;;;;4948771;28;20408;-66
2022/01/27 12:29:51;;;;;;;60.10;17.70;;;-0.30;99.90;;;;;;4951029;28;20437;-65
2022/01/27 12:32:17;;;;;;;57.33;17.48;;;-0.30;99.90;;;;;;4955540;28;20023;-65
2022/01/27 12:35:14;;;;;;;60.85;17.77;;;-0.30;99.90;;;;;;4950148;28;20027;-66
2022/01/27 12:37:41;;;;;;;60.65;17.55;;;-0.20;99.90;;;;;;4950776;28;20039;-63
2022/01/27 12:40:14;;;;;;;60.78;17.65;;;-0.20;99.90;;;;;;4953618;28;20031;-64
2022/01/27 12:42:56;;;;;;;55.30;17.23;;;-0.10;99.90;;;;;;4946999;28;20031;-63
2022/01/27 12:45:27;;;;;;;58.00;16.90;;;-0.20;99.90;;;;;;4950071;28;20476;-64
2022/01/27 12:47:53;;;;;;;56.85;17.27;;;-0.20;99.90;;;;;;4949516;28;20063;-65
2022/01/27 12:50:22;;;;;;;56.25;15.02;;;-0.20;99.90;;;;;;4949957;28;20031;-66
2022/01/27 12:52:58;;;;;;;58.53;16.13;;;-0.10;99.90;;;;;;4950296;28;20443;-64
2022/01/27 12:55:32;;;;;;;51.00;15.75;;;-0.10;99.90;;;;;;4948857;28;20035;-65
2022/01/27 12:58:06;;;;;;;55.88;16.73;;;-0.10;99.90;;;;;;4948195;29;20048;-65
2022/01/27 13:00:49;;;;;;;52.30;14.93;;;-0.10;99.90;;;;;;4948385;29;20546;-64
2022/01/27 13:03:16;;;;;;;52.35;16.50;;;-0.10;99.90;;;;;;4947889;28;20024;-64
2022/01/27 13:05:41;;;;;;;50.92;16.08;;;0.00;99.90;;;;;;4950220;28;20046;-62
2022/01/27 13:08:10;;;;;;;58.97;17.10;;;0.00;99.90;;;;;;4950523;28;20051;-63
2022/01/27 13:10:40;;;;;;;57.95;16.35;;;0.10;99.90;;;;;;4947914;28;20055;-65
2022/01/27 13:13:07;;;;;;;55.25;16.88;;;0.10;99.90;;;;;;4947804;28;20037;-65
2022/01/27 13:15:33;;;;;;;49.83;14.23;;;0.20;99.90;;;;;;4946123;28;20032;-64
2022/01/27 13:18:10;;;;;;;51.17;16.48;;;0.30;99.90;;;;;;4947660;28;20045;-67
2022/01/27 13:20:50;;;;;;;38.65;12.80;;;0.20;99.90;;;;;;4947000;28;20182;-63
2022/01/27 13:23:34;;;;;;;49.65;14.55;;;0.30;99.90;;;;;;4956053;28;20469;-65